Time;durP1;ratioP1;P1;durP2;ratioP2;P2;SDS_P1;SDS_P2;PMS_P1;PMS_P2;Temp;Humidity;BMP_temperature;BMP_pressure;BME280_temperature;BME280_humidity;BME280_pressure;Samples;Min_cycle;Max_cycle;Signal;HPM_P1;HPM_P2
2020/12/02 00:00:52;;;;;;;35.22;19.27;;;3.10;99.90;;;;;;5075811;28;20170;-59
2020/12/02 00:03:22;;;;;;;36.33;18.85;;;3.10;99.90;;;;;;5075913;28;20503;-59
2020/12/02 00:05:51;;;;;;;33.35;18.45;;;3.10;99.90;;;;;;5074906;28;20179;-59
2020/12/02 00:08:26;;;;;;;37.45;20.20;;;3.00;99.90;;;;;;5076080;28;20302;-58
2020/12/02 00:10:51;;;;;;;38.00;19.55;;;3.00;99.90;;;;;;5075428;28;20144;-59
2020/12/02 00:13:28;;;;;;;33.45;19.63;;;3.00;99.90;;;;;;5075416;28;20171;-59
2020/12/02 00:15:54;;;;;;;38.50;20.27;;;3.00;99.90;;;;;;5074783;28;20156;-58
2020/12/02 00:18:19;;;;;;;34.85;19.90;;;3.00;99.90;;;;;;5075676;28;20175;-58
2020/12/02 00:20:45;;;;;;;34.90;19.45;;;3.00;99.90;;;;;;5074349;28;20607;-58
2020/12/02 00:23:10;;;;;;;37.53;18.90;;;3.00;99.90;;;;;;5075767;28;20490;-58
2020/12/02 00:25:36;;;;;;;35.90;18.05;;;3.00;99.90;;;;;;5075290;28;20172;-58
2020/12/02 00:28:03;;;;;;;31.40;17.80;;;3.00;99.90;;;;;;5075192;28;20194;-58
2020/12/02 00:30:33;;;;;;;36.95;19.25;;;3.00;99.90;;;;;;5075090;28;20255;-58
2020/12/02 00:33:06;;;;;;;30.80;17.98;;;3.00;99.90;;;;;;5075356;28;20173;-58
2020/12/02 00:35:32;;;;;;;35.42;18.70;;;3.10;99.90;;;;;;5075044;28;20184;-58
2020/12/02 00:37:57;;;;;;;35.75;19.33;;;3.10;99.90;;;;;;5075018;28;20255;-58
2020/12/02 00:40:23;;;;;;;32.20;17.80;;;3.10;99.90;;;;;;5074938;28;20239;-58
2020/12/02 00:42:49;;;;;;;35.80;18.88;;;3.10;99.90;;;;;;5075233;28;20186;-58
2020/12/02 00:45:14;;;;;;;31.65;17.88;;;3.20;99.90;;;;;;5074806;28;20217;-57
2020/12/02 00:47:40;;;;;;;30.13;18.33;;;3.20;99.90;;;;;;5075024;28;20172;-58
2020/12/02 00:50:08;;;;;;;32.28;17.75;;;3.20;99.90;;;;;;5074473;28;20229;-58
2020/12/02 00:52:34;;;;;;;33.55;18.50;;;3.20;99.90;;;;;;5074848;28;20195;-57
2020/12/02 00:54:59;;;;;;;32.13;18.42;;;3.20;99.90;;;;;;5074099;28;20666;-57
2020/12/02 00:57:33;;;;;;;32.65;17.85;;;3.30;99.90;;;;;;5075097;28;20203;-57
2020/12/02 00:59:59;;;;;;;32.25;18.20;;;3.30;99.90;;;;;;5073889;28;20498;-58
2020/12/02 01:02:46;;;;;;;32.28;17.88;;;3.30;99.90;;;;;;5074739;28;20175;-58
2020/12/02 01:05:15;;;;;;;35.97;19.40;;;3.30;99.90;;;;;;5073855;28;20149;-57
2020/12/02 01:07:43;;;;;;;34.90;19.08;;;3.30;99.90;;;;;;5074984;28;20160;-57
2020/12/02 01:10:10;;;;;;;32.47;18.20;;;3.40;99.90;;;;;;5074850;28;20644;-57
2020/12/02 01:12:35;;;;;;;32.42;17.63;;;3.40;99.90;;;;;;5074929;28;20176;-57
2020/12/02 01:15:02;;;;;;;34.05;18.25;;;3.40;99.90;;;;;;5074894;28;20199;-57
2020/12/02 01:17:28;;;;;;;31.63;18.45;;;3.40;99.90;;;;;;5073664;28;20190;-57
2020/12/02 01:19:53;;;;;;;33.03;18.63;;;3.40;99.90;;;;;;5074837;28;20595;-58
2020/12/02 01:22:25;;;;;;;32.28;17.98;;;3.40;99.90;;;;;;5074506;28;20172;-59
2020/12/02 01:25:12;;;;;;;35.05;18.45;;;3.40;99.90;;;;;;5073735;28;20191;-58
2020/12/02 01:27:56;;;;;;;33.17;17.77;;;3.40;99.90;;;;;;5077729;28;20171;-58
2020/12/02 01:30:22;;;;;;;32.17;18.55;;;3.40;99.90;;;;;;5077711;28;20211;-58
2020/12/02 01:32:48;;;;;;;35.53;19.23;;;3.40;99.90;;;;;;5077962;28;20172;-59
2020/12/02 01:35:17;;;;;;;33.63;19.27;;;3.40;99.90;;;;;;5078419;28;20650;-58
2020/12/02 01:37:43;;;;;;;31.17;17.45;;;3.40;99.90;;;;;;5078363;28;20167;-58
2020/12/02 01:40:20;;;;;;;31.10;18.73;;;3.40;99.90;;;;;;5077810;28;20179;-58
2020/12/02 01:42:50;;;;;;;31.52;18.08;;;3.40;99.90;;;;;;5078284;28;20657;-58
2020/12/02 01:45:21;;;;;;;33.65;18.98;;;3.40;99.90;;;;;;5078326;28;20188;-58
2020/12/02 01:48:04;;;;;;;32.75;19.17;;;3.40;99.90;;;;;;5078474;28;20187;-58
2020/12/02 01:50:46;;;;;;;33.25;18.52;;;3.40;99.90;;;;;;5078530;28;20234;-58
2020/12/02 01:53:18;;;;;;;33.40;18.02;;;3.40;99.90;;;;;;5078220;28;20639;-58
2020/12/02 01:55:59;;;;;;;36.25;19.95;;;3.40;99.90;;;;;;5078261;28;20587;-58
2020/12/02 01:58:42;;;;;;;38.45;20.02;;;3.40;99.90;;;;;;5077433;28;20543;-58
2020/12/02 02:01:24;;;;;;;35.10;18.80;;;3.40;99.90;;;;;;5078097;28;20148;-58
2020/12/02 02:03:50;;;;;;;31.35;18.60;;;3.40;99.90;;;;;;5077009;28;20160;-58
2020/12/02 02:06:21;;;;;;;32.63;18.95;;;3.40;99.90;;;;;;5077309;28;20180;-58
2020/12/02 02:08:46;;;;;;;33.78;18.70;;;3.40;99.90;;;;;;5076903;28;20156;-58
2020/12/02 02:11:19;;;;;;;31.70;18.50;;;3.40;99.90;;;;;;5077607;28;20168;-58
2020/12/02 02:14:14;;;;;;;35.78;19.70;;;3.40;99.90;;;;;;5077626;28;20279;-58
2020/12/02 02:16:45;;;;;;;34.88;19.08;;;3.40;99.90;;;;;;5076964;28;20171;-58
2020/12/02 02:19:19;;;;;;;34.17;18.80;;;3.40;99.90;;;;;;5077617;28;20685;-58
2020/12/02 02:21:45;;;;;;;35.72;19.42;;;3.40;99.90;;;;;;5077711;28;20160;-58
2020/12/02 02:24:11;;;;;;;33.28;18.42;;;3.40;99.90;;;;;;5077572;28;20259;-58
2020/12/02 02:26:40;;;;;;;35.22;19.60;;;3.40;99.90;;;;;;5077617;28;20175;-57
2020/12/02 02:29:22;;;;;;;34.33;19.42;;;3.40;99.90;;;;;;5077426;28;20168;-58
2020/12/02 02:31:59;;;;;;;32.80;18.48;;;3.40;99.90;;;;;;5076732;28;20176;-58
2020/12/02 02:34:26;;;;;;;32.97;18.75;;;3.40;99.90;;;;;;5077288;28;20535;-58
2020/12/02 02:36:53;;;;;;;31.38;19.02;;;3.40;99.90;;;;;;5077300;28;20171;-58
2020/12/02 02:39:19;;;;;;;31.10;18.00;;;3.40;99.90;;;;;;5076540;28;20597;-58
2020/12/02 02:41:45;;;;;;;33.67;19.38;;;3.40;99.90;;;;;;5077662;28;20245;-58
2020/12/02 02:44:11;;;;;;;35.55;19.95;;;3.30;99.90;;;;;;5077227;28;20168;-58
2020/12/02 02:46:37;;;;;;;33.22;19.30;;;3.40;99.90;;;;;;5088001;28;20184;-58
2020/12/02 02:49:04;;;;;;;32.90;18.20;;;3.40;99.90;;;;;;5091450;28;20191;-58
2020/12/02 02:51:29;;;;;;;31.98;19.20;;;3.40;99.90;;;;;;5088743;28;20169;-60
2020/12/02 02:53:55;;;;;;;32.55;19.33;;;3.40;99.90;;;;;;5077164;28;20192;-58
2020/12/02 02:56:20;;;;;;;33.45;19.50;;;3.40;99.90;;;;;;5076857;28;20168;-58
2020/12/02 02:58:46;;;;;;;34.50;18.83;;;3.40;99.90;;;;;;5076889;28;20180;-58
2020/12/02 03:01:12;;;;;;;35.08;19.60;;;3.40;99.90;;;;;;5076819;28;20267;-59
2020/12/02 03:03:38;;;;;;;31.23;19.13;;;3.40;99.90;;;;;;5076792;28;20176;-58
2020/12/02 03:06:05;;;;;;;30.95;19.05;;;3.40;99.90;;;;;;5076819;28;20196;-60
2020/12/02 03:08:31;;;;;;;31.40;18.95;;;3.40;99.90;;;;;;5076691;28;20171;-58
2020/12/02 03:10:59;;;;;;;34.58;19.67;;;3.40;99.90;;;;;;5076863;28;20249;-57
2020/12/02 03:13:30;;;;;;;32.92;18.77;;;3.40;99.90;;;;;;5075805;28;20164;-58
2020/12/02 03:15:56;;;;;;;30.65;18.13;;;3.40;99.90;;;;;;5076026;28;20168;-58
2020/12/02 03:18:23;;;;;;;35.35;20.35;;;3.40;99.90;;;;;;5076461;28;20160;-58
2020/12/02 03:20:56;;;;;;;33.63;19.75;;;3.40;99.90;;;;;;5075836;28;20160;-58
2020/12/02 03:23:21;;;;;;;35.03;19.73;;;3.40;99.90;;;;;;5076454;28;20149;-58
2020/12/02 03:25:48;;;;;;;31.83;19.65;;;3.40;99.90;;;;;;5075554;28;20175;-58
2020/12/02 03:28:13;;;;;;;32.70;19.88;;;3.40;99.90;;;;;;5076579;28;20255;-58
2020/12/02 03:30:41;;;;;;;30.73;18.77;;;3.40;99.90;;;;;;5076340;28;20553;-58
2020/12/02 03:33:09;;;;;;;29.33;18.75;;;3.40;99.90;;;;;;5076468;28;20180;-58
2020/12/02 03:35:34;;;;;;;32.47;18.67;;;3.40;99.90;;;;;;5076749;28;20659;-57
2020/12/02 03:38:00;;;;;;;30.70;18.77;;;3.40;99.90;;;;;;5076185;28;20202;-57
2020/12/02 03:40:25;;;;;;;33.40;18.75;;;3.40;99.90;;;;;;5076610;28;20168;-57
2020/12/02 03:42:51;;;;;;;35.80;19.45;;;3.40;99.90;;;;;;5076628;28;20160;-57
2020/12/02 03:45:17;;;;;;;32.05;19.60;;;3.40;99.90;;;;;;5075922;28;20199;-57
2020/12/02 03:47:43;;;;;;;33.63;18.60;;;3.40;99.90;;;;;;5075826;28;20164;-57
2020/12/02 03:50:10;;;;;;;32.67;18.88;;;3.40;99.90;;;;;;5075695;28;20179;-57
2020/12/02 03:52:37;;;;;;;32.58;19.38;;;3.40;99.90;;;;;;5075726;28;20517;-57
2020/12/02 03:55:03;;;;;;;32.97;19.80;;;3.40;99.90;;;;;;5075980;28;20207;-57
2020/12/02 03:57:29;;;;;;;31.17;18.45;;;3.40;99.90;;;;;;5075626;28;20176;-57
2020/12/02 03:59:54;;;;;;;34.13;19.15;;;3.40;99.90;;;;;;5075831;28;20182;-60
2020/12/02 04:02:20;;;;;;;34.17;19.25;;;3.40;99.90;;;;;;5075861;28;20164;-57
2020/12/02 04:04:45;;;;;;;33.80;19.00;;;3.40;99.90;;;;;;5075844;28;20221;-58
2020/12/02 04:07:11;;;;;;;34.45;19.83;;;3.40;99.90;;;;;;5075797;28;20294;-58
2020/12/02 04:09:36;;;;;;;31.52;18.23;;;3.40;99.90;;;;;;5075792;28;20200;-58
2020/12/02 04:12:02;;;;;;;31.45;19.35;;;3.30;99.90;;;;;;5075765;28;20164;-58
2020/12/02 04:14:27;;;;;;;33.33;18.65;;;3.30;99.90;;;;;;5075539;28;20195;-58
2020/12/02 04:16:53;;;;;;;35.13;20.25;;;3.20;99.90;;;;;;5075359;28;20611;-57
2020/12/02 04:19:18;;;;;;;32.88;19.45;;;3.20;99.90;;;;;;5075477;28;20171;-57
2020/12/02 04:21:44;;;;;;;30.08;18.73;;;3.20;99.90;;;;;;5075252;28;20175;-57
2020/12/02 04:24:10;;;;;;;32.40;18.98;;;3.10;99.90;;;;;;5075164;28;20179;-57
2020/12/02 04:26:35;;;;;;;34.58;19.10;;;3.10;99.90;;;;;;5075497;28;20190;-57
2020/12/02 04:29:01;;;;;;;32.35;18.73;;;3.10;99.90;;;;;;5075156;28;20167;-57
2020/12/02 04:31:26;;;;;;;33.63;19.35;;;3.10;99.90;;;;;;5075117;28;20268;-57
2020/12/02 04:33:52;;;;;;;36.65;20.13;;;3.10;99.90;;;;;;5075045;28;20263;-57
2020/12/02 04:36:17;;;;;;;36.50;19.38;;;3.10;99.90;;;;;;5075299;28;20172;-57
2020/12/02 04:38:43;;;;;;;30.45;18.63;;;3.20;99.90;;;;;;5075143;28;20610;-58
2020/12/02 04:41:13;;;;;;;34.30;20.10;;;3.20;99.90;;;;;;5074962;28;20614;-57
2020/12/02 04:43:41;;;;;;;32.75;20.15;;;3.20;99.90;;;;;;5075207;28;20165;-57
2020/12/02 04:46:25;;;;;;;35.75;20.10;;;3.20;99.90;;;;;;5074042;28;20183;-57
2020/12/02 04:48:53;;;;;;;31.48;19.60;;;3.20;99.90;;;;;;5074125;28;20172;-57
2020/12/02 04:51:25;;;;;;;32.53;19.45;;;3.20;99.90;;;;;;5075138;28;20164;-57
2020/12/02 04:53:53;;;;;;;32.60;19.85;;;3.20;99.90;;;;;;5074679;28;20196;-57
2020/12/02 04:56:19;;;;;;;29.75;18.33;;;3.20;99.90;;;;;;5074148;28;20172;-57
2020/12/02 04:58:48;;;;;;;31.10;20.00;;;3.20;99.90;;;;;;5074944;28;20247;-58
2020/12/02 05:01:25;;;;;;;30.80;19.33;;;3.10;99.90;;;;;;5074370;28;20277;-58
2020/12/02 05:03:57;;;;;;;32.50;20.17;;;3.10;99.90;;;;;;5074663;28;20167;-57
2020/12/02 05:06:27;;;;;;;31.20;19.00;;;3.10;99.90;;;;;;5074707;28;20191;-58
2020/12/02 05:09:11;;;;;;;32.75;19.73;;;3.20;99.90;;;;;;5074550;28;20174;-58
2020/12/02 05:11:38;;;;;;;33.95;20.42;;;3.20;99.90;;;;;;5074820;28;20175;-58
2020/12/02 05:14:05;;;;;;;32.28;19.10;;;3.10;99.90;;;;;;5074718;28;20504;-58
2020/12/02 05:16:31;;;;;;;33.03;20.20;;;3.10;99.90;;;;;;5074849;28;20249;-58
2020/12/02 05:19:18;;;;;;;30.38;19.85;;;3.10;99.90;;;;;;5074407;28;20591;-57
2020/12/02 05:21:44;;;;;;;29.60;18.60;;;3.10;99.90;;;;;;5073761;28;20168;-58
2020/12/02 05:24:18;;;;;;;35.55;20.50;;;3.10;99.90;;;;;;5074592;28;20221;-58
2020/12/02 05:26:49;;;;;;;33.00;19.67;;;3.10;99.90;;;;;;5074832;28;20156;-58
2020/12/02 05:30:07;;;;;;;31.35;19.42;;;3.10;99.90;;;;;;5073571;28;20152;-58
2020/12/02 05:32:32;;;;;;;31.98;19.20;;;3.10;99.90;;;;;;5071549;28;20282;-58
2020/12/02 05:34:58;;;;;;;29.58;19.33;;;3.10;99.90;;;;;;5073382;28;20397;-58
2020/12/02 05:37:40;;;;;;;32.00;19.88;;;3.10;99.90;;;;;;5074330;28;20575;-58
2020/12/02 05:40:09;;;;;;;31.55;19.85;;;3.10;99.90;;;;;;5073172;28;20183;-58
2020/12/02 05:42:38;;;;;;;33.38;19.90;;;3.10;99.90;;;;;;5073477;28;20179;-58
2020/12/02 05:45:26;;;;;;;33.50;20.17;;;3.10;99.90;;;;;;5074160;28;20192;-58
2020/12/02 05:47:53;;;;;;;35.47;19.45;;;3.10;99.90;;;;;;5074565;28;20180;-58
2020/12/02 05:50:20;;;;;;;33.17;19.98;;;3.10;99.90;;;;;;5074074;28;20204;-58
2020/12/02 05:52:46;;;;;;;32.20;19.50;;;3.10;99.90;;;;;;5074307;28;20164;-58
2020/12/02 05:55:26;;;;;;;32.58;20.08;;;3.00;99.90;;;;;;5072831;28;20653;-58
2020/12/02 05:58:04;;;;;;;32.60;20.27;;;3.00;99.90;;;;;;5073183;28;20156;-58
2020/12/02 06:00:31;;;;;;;37.28;20.75;;;2.90;99.90;;;;;;5073773;28;20187;-57
2020/12/02 06:02:57;;;;;;;36.08;20.92;;;2.90;99.90;;;;;;5073027;28;20595;-58
2020/12/02 06:05:24;;;;;;;32.58;21.02;;;2.80;99.90;;;;;;5073991;28;20176;-58
2020/12/02 06:07:52;;;;;;;36.67;21.00;;;2.80;99.90;;;;;;5074210;28;20267;-58
2020/12/02 06:10:53;;;;;;;32.05;20.17;;;2.80;99.90;;;;;;5073751;28;20241;-58
2020/12/02 06:13:48;;;;;;;34.50;20.80;;;2.80;99.90;;;;;;5064875;28;20184;-58
2020/12/02 06:16:26;;;;;;;35.50;21.20;;;2.80;99.90;;;;;;5077960;28;20234;-59
2020/12/02 06:18:53;;;;;;;38.42;22.05;;;2.80;99.90;;;;;;5076751;28;20164;-57
2020/12/02 06:21:45;;;;;;;34.33;20.30;;;2.80;99.90;;;;;;5077793;28;20187;-57
2020/12/02 06:24:13;;;;;;;34.17;20.17;;;2.80;99.90;;;;;;5077539;28;20176;-58
2020/12/02 06:26:45;;;;;;;34.17;20.95;;;2.80;99.90;;;;;;5077512;28;20160;-57
2020/12/02 06:29:36;;;;;;;36.03;20.98;;;2.70;99.90;;;;;;5077819;28;20156;-58
2020/12/02 06:32:20;;;;;;;34.28;20.83;;;2.70;99.90;;;;;;5077568;28;20171;-57
2020/12/02 06:34:48;;;;;;;39.40;22.27;;;2.70;99.90;;;;;;5077414;28;20267;-58
2020/12/02 06:37:19;;;;;;;38.60;22.23;;;2.70;99.90;;;;;;5077389;28;20160;-58
2020/12/02 06:39:55;;;;;;;36.85;22.02;;;2.70;99.90;;;;;;5077855;28;20168;-59
2020/12/02 06:42:32;;;;;;;39.58;21.77;;;2.70;99.90;;;;;;5077754;28;20175;-58
2020/12/02 06:45:16;;;;;;;38.35;22.25;;;2.80;99.90;;;;;;5077287;28;20506;-58
2020/12/02 06:47:50;;;;;;;38.80;22.05;;;2.80;99.90;;;;;;5076754;28;20638;-58
2020/12/02 06:50:22;;;;;;;38.00;22.35;;;2.80;99.90;;;;;;5076236;28;20171;-58
2020/12/02 06:52:48;;;;;;;38.10;22.13;;;2.80;99.90;;;;;;5076952;28;20170;-58
2020/12/02 06:55:22;;;;;;;36.42;21.13;;;2.80;99.90;;;;;;5080067;28;20581;-58
2020/12/02 06:57:54;;;;;;;33.70;20.40;;;2.90;99.90;;;;;;5081351;28;20174;-58
2020/12/02 07:00:26;;;;;;;35.95;20.90;;;2.90;99.90;;;;;;5079732;28;20167;-59
2020/12/02 07:03:00;;;;;;;37.08;21.63;;;2.90;99.90;;;;;;5084352;28;20145;-58
2020/12/02 07:05:31;;;;;;;36.95;21.23;;;2.90;99.90;;;;;;5082740;28;20152;-58
2020/12/02 07:08:12;;;;;;;38.10;21.92;;;2.90;99.90;;;;;;5086977;28;20564;-58
2020/12/02 07:10:38;;;;;;;37.42;21.83;;;3.00;99.90;;;;;;5087361;28;20202;-58
2020/12/02 07:13:03;;;;;;;38.63;21.10;;;3.00;99.90;;;;;;5076136;28;20662;-58
2020/12/02 07:15:29;;;;;;;35.35;21.25;;;2.90;99.90;;;;;;5073193;28;20198;-57
2020/12/02 07:18:08;;;;;;;37.35;22.30;;;2.90;99.90;;;;;;5074423;28;20175;-57
2020/12/02 07:20:35;;;;;;;34.83;21.65;;;2.90;99.90;;;;;;5074313;28;20156;-57
2020/12/02 07:23:00;;;;;;;34.80;21.35;;;2.90;99.90;;;;;;5074648;28;20168;-58
2020/12/02 07:25:26;;;;;;;34.92;21.35;;;3.00;99.90;;;;;;5073784;28;20176;-58
2020/12/02 07:27:52;;;;;;;38.05;22.75;;;3.00;99.90;;;;;;5075326;28;20611;-58
2020/12/02 07:30:32;;;;;;;41.10;21.75;;;3.00;99.90;;;;;;5076251;28;20190;-58
2020/12/02 07:33:29;;;;;;;37.90;22.10;;;3.00;99.90;;;;;;5076565;28;20179;-58
2020/12/02 07:36:07;;;;;;;37.05;21.27;;;3.00;99.90;;;;;;5075826;28;20212;-58
2020/12/02 07:38:32;;;;;;;34.67;21.77;;;3.10;99.90;;;;;;5076031;28;20217;-58
2020/12/02 07:41:07;;;;;;;35.92;22.20;;;3.10;99.90;;;;;;5076175;28;20156;-58
2020/12/02 07:43:33;;;;;;;37.47;21.70;;;3.10;99.90;;;;;;5075124;28;20595;-58
2020/12/02 07:46:02;;;;;;;38.30;21.60;;;3.10;99.90;;;;;;5074904;28;20199;-58
2020/12/02 07:48:29;;;;;;;37.05;22.55;;;3.10;99.90;;;;;;5076062;28;20179;-58
2020/12/02 07:50:59;;;;;;;35.67;21.92;;;3.00;99.90;;;;;;5075128;28;20251;-58
2020/12/02 07:53:43;;;;;;;39.35;22.35;;;3.00;99.90;;;;;;5076583;28;20156;-58
2020/12/02 07:56:33;;;;;;;37.33;22.92;;;3.00;99.90;;;;;;5075689;28;20682;-58
2020/12/02 07:59:20;;;;;;;34.00;21.52;;;3.00;99.90;;;;;;5075042;28;20298;-58
2020/12/02 08:01:58;;;;;;;33.50;20.88;;;2.90;99.90;;;;;;5075751;28;20163;-58
2020/12/02 08:04:27;;;;;;;39.92;22.60;;;2.90;99.90;;;;;;5075636;28;20188;-58
2020/12/02 08:07:00;;;;;;;37.47;21.27;;;2.90;99.90;;;;;;5075561;28;20239;-58
2020/12/02 08:09:25;;;;;;;36.15;22.55;;;2.90;99.90;;;;;;5075451;28;20503;-58
2020/12/02 08:12:07;;;;;;;34.92;20.92;;;2.90;99.90;;;;;;5074336;28;20164;-57
2020/12/02 08:14:37;;;;;;;39.78;21.50;;;2.90;99.90;;;;;;5074279;28;20184;-57
2020/12/02 08:17:14;;;;;;;38.33;22.15;;;2.90;99.90;;;;;;5074419;28;20225;-57
2020/12/02 08:19:42;;;;;;;36.00;20.73;;;2.90;99.90;;;;;;5075360;28;20504;-58
2020/12/02 08:22:22;;;;;;;39.00;22.77;;;2.90;99.90;;;;;;5075285;28;20179;-57
2020/12/02 08:24:52;;;;;;;41.95;22.77;;;2.90;99.90;;;;;;5074070;28;20153;-57
2020/12/02 08:27:18;;;;;;;39.58;22.85;;;2.90;99.90;;;;;;5074823;28;20168;-57
2020/12/02 08:29:50;;;;;;;39.15;23.00;;;2.90;99.90;;;;;;5074893;28;20250;-57
2020/12/02 08:32:29;;;;;;;38.95;22.65;;;2.90;99.90;;;;;;5075167;28;20168;-57
2020/12/02 08:34:55;;;;;;;37.53;22.23;;;2.90;99.90;;;;;;5074207;28;20704;-57
2020/12/02 08:37:20;;;;;;;42.10;23.83;;;2.90;99.90;;;;;;5074117;28;20254;-58
2020/12/02 08:39:52;;;;;;;39.85;23.75;;;2.90;99.90;;;;;;5074829;28;20168;-58
2020/12/02 08:42:24;;;;;;;37.33;22.63;;;2.90;99.90;;;;;;5074368;28;20594;-58
2020/12/02 08:45:14;;;;;;;37.50;23.30;;;2.90;99.90;;;;;;5078495;28;20286;-58
2020/12/02 08:47:40;;;;;;;41.63;23.23;;;2.90;99.90;;;;;;5094449;28;20528;-58
2020/12/02 08:50:07;;;;;;;41.10;23.80;;;2.90;99.90;;;;;;5094187;28;20168;-58
2020/12/02 08:52:32;;;;;;;37.80;22.98;;;2.90;99.90;;;;;;5093920;28;20613;-58
2020/12/02 08:54:58;;;;;;;40.38;24.30;;;2.90;99.90;;;;;;5095495;28;20195;-58
2020/12/02 08:57:24;;;;;;;37.80;23.58;;;2.90;99.90;;;;;;5095176;28;20191;-58
2020/12/02 08:59:49;;;;;;;37.17;22.80;;;3.00;99.90;;;;;;5094122;28;20170;-59
2020/12/02 09:02:16;;;;;;;41.72;24.83;;;3.00;99.90;;;;;;5094849;28;20151;-58
2020/12/02 09:04:45;;;;;;;41.88;24.48;;;3.00;99.90;;;;;;5095044;28;20178;-59
2020/12/02 09:07:12;;;;;;;40.45;23.83;;;3.00;99.90;;;;;;5095256;28;20193;-58
2020/12/02 09:09:38;;;;;;;40.97;23.92;;;3.00;99.90;;;;;;5094884;28;20182;-59
2020/12/02 09:12:03;;;;;;;41.45;23.38;;;3.00;99.90;;;;;;5094712;28;20167;-59
2020/12/02 09:14:29;;;;;;;43.60;24.05;;;3.00;99.90;;;;;;5094576;28;20317;-59
2020/12/02 09:16:55;;;;;;;40.25;23.88;;;3.10;99.90;;;;;;5094941;28;20498;-58
2020/12/02 09:19:20;;;;;;;40.22;23.63;;;3.10;99.90;;;;;;5094968;28;20594;-58
2020/12/02 09:21:47;;;;;;;42.60;23.83;;;3.10;99.90;;;;;;5094563;28;20185;-58
2020/12/02 09:24:14;;;;;;;44.08;24.70;;;3.10;99.90;;;;;;5094690;28;20175;-58
2020/12/02 09:26:39;;;;;;;40.70;24.30;;;3.10;99.90;;;;;;5094386;28;20163;-58
2020/12/02 09:29:07;;;;;;;43.10;25.17;;;3.10;99.90;;;;;;5094753;28;20163;-58
2020/12/02 09:31:34;;;;;;;43.33;25.05;;;3.20;99.90;;;;;;5094714;28;20486;-58
2020/12/02 09:34:00;;;;;;;42.70;24.65;;;3.20;99.90;;;;;;5094856;28;20187;-58
2020/12/02 09:36:26;;;;;;;43.28;24.63;;;3.30;99.90;;;;;;5093769;28;20497;-58
2020/12/02 09:38:53;;;;;;;44.30;25.50;;;3.40;99.90;;;;;;5094343;28;20168;-58
2020/12/02 09:41:27;;;;;;;44.33;25.27;;;3.40;99.90;;;;;;5094284;28;20164;-58
2020/12/02 09:44:01;;;;;;;41.17;24.70;;;3.50;99.90;;;;;;5094635;28;20171;-57
2020/12/02 09:46:29;;;;;;;38.97;23.63;;;3.50;99.90;;;;;;5093398;28;20187;-58
2020/12/02 09:48:55;;;;;;;45.33;24.73;;;3.50;99.90;;;;;;5097882;28;20174;-58
2020/12/02 09:51:24;;;;;;;41.95;24.25;;;3.50;99.90;;;;;;5097989;28;20164;-58
2020/12/02 09:53:50;;;;;;;37.92;23.48;;;3.60;99.90;;;;;;5098322;28;20258;-57
2020/12/02 09:56:17;;;;;;;42.58;23.90;;;3.60;99.90;;;;;;5098224;28;20176;-57
2020/12/02 09:58:43;;;;;;;45.70;25.00;;;3.70;99.90;;;;;;5098264;28;20172;-57
2020/12/02 10:01:16;;;;;;;40.97;23.95;;;3.80;99.90;;;;;;5098092;28;20232;-57
2020/12/02 10:04:14;;;;;;;40.50;24.15;;;3.80;99.90;;;;;;5098114;28;20163;-57
2020/12/02 10:07:20;;;;;;;38.47;22.55;;;3.90;99.90;;;;;;5096896;28;20201;-58
2020/12/02 10:10:16;;;;;;;39.00;23.23;;;3.90;99.90;;;;;;5079815;28;20577;-57
2020/12/02 10:13:10;;;;;;;39.80;23.65;;;4.00;99.90;;;;;;5097795;28;20597;-57
2020/12/02 10:16:00;;;;;;;40.13;23.48;;;4.00;99.90;;;;;;5097948;28;20180;-57
2020/12/02 10:18:31;;;;;;;39.78;23.60;;;3.90;99.90;;;;;;5098043;28;20152;-57
2020/12/02 10:21:08;;;;;;;39.80;23.48;;;3.90;99.90;;;;;;5096469;28;20166;-57
2020/12/02 10:23:51;;;;;;;36.97;22.55;;;3.90;99.90;;;;;;5096942;28;20144;-58
2020/12/02 10:26:44;;;;;;;39.72;23.58;;;3.90;99.90;;;;;;5097780;28;20178;-57
2020/12/02 10:29:33;;;;;;;40.88;23.15;;;4.00;99.90;;;;;;5076429;28;20580;-57
2020/12/02 10:32:17;;;;;;;42.10;22.75;;;4.00;99.90;;;;;;5077419;28;20188;-58
2020/12/02 10:34:43;;;;;;;39.78;22.77;;;4.00;99.90;;;;;;5076317;28;20172;-57
2020/12/02 10:37:19;;;;;;;36.80;22.35;;;4.00;99.90;;;;;;5077224;28;20160;-57
2020/12/02 10:39:45;;;;;;;37.20;22.60;;;3.90;99.90;;;;;;5077471;28;20156;-57
2020/12/02 10:42:20;;;;;;;38.67;22.98;;;3.90;99.90;;;;;;5077367;28;20171;-57
2020/12/02 10:44:56;;;;;;;41.03;23.40;;;3.90;99.90;;;;;;5077672;28;20611;-57
2020/12/02 10:47:52;;;;;;;37.60;22.77;;;3.90;99.90;;;;;;5098231;28;20174;-57
2020/12/02 10:50:22;;;;;;;39.72;22.55;;;3.90;99.90;;;;;;5097624;28;20152;-57
2020/12/02 10:52:50;;;;;;;38.28;21.80;;;3.80;99.90;;;;;;5097976;28;20168;-57
2020/12/02 10:55:18;;;;;;;38.42;23.40;;;3.80;99.90;;;;;;5097236;28;20210;-57
2020/12/02 10:57:43;;;;;;;42.88;23.58;;;3.70;99.90;;;;;;5097193;28;20599;-57
2020/12/02 11:00:12;;;;;;;36.85;23.30;;;3.60;99.90;;;;;;5096242;28;20220;-57
2020/12/02 11:02:37;;;;;;;39.45;22.73;;;3.60;99.90;;;;;;5095081;28;20167;-57
2020/12/02 11:05:05;;;;;;;39.90;23.20;;;3.60;99.90;;;;;;5095213;28;20190;-57
2020/12/02 11:07:43;;;;;;;42.40;23.83;;;3.60;99.90;;;;;;5094821;28;20170;-57
2020/12/02 11:10:22;;;;;;;42.15;23.30;;;3.60;99.90;;;;;;5095050;28;20231;-57
2020/12/02 11:13:25;;;;;;;39.25;22.85;;;3.60;99.90;;;;;;5095246;28;20256;-57
2020/12/02 11:15:55;;;;;;;40.38;24.05;;;3.70;99.90;;;;;;5095444;28;20191;-57
2020/12/02 11:18:42;;;;;;;38.10;22.92;;;3.90;99.90;;;;;;5096021;28;20191;-57
2020/12/02 11:21:41;;;;;;;37.88;23.13;;;4.00;99.90;;;;;;5095985;28;20143;-57
2020/12/02 11:24:09;;;;;;;39.80;22.40;;;4.10;99.90;;;;;;5096260;28;20175;-57
2020/12/02 11:26:37;;;;;;;39.95;22.70;;;4.20;99.90;;;;;;5097430;28;20175;-58
2020/12/02 11:29:05;;;;;;;37.58;21.88;;;4.20;99.90;;;;;;5106605;28;20185;-58
2020/12/02 11:31:59;;;;;;;40.80;23.92;;;4.20;99.90;;;;;;5106630;28;20232;-57
2020/12/02 11:34:55;;;;;;;37.83;22.45;;;4.30;99.90;;;;;;5102742;28;20202;-57
2020/12/02 11:37:46;;;;;;;41.55;23.52;;;4.30;99.90;;;;;;5096563;28;20152;-57
2020/12/02 11:40:19;;;;;;;39.67;22.80;;;4.30;99.90;;;;;;5095536;28;20179;-57
2020/12/02 11:42:57;;;;;;;39.40;23.33;;;4.30;99.90;;;;;;5095395;28;20160;-58
2020/12/02 11:45:41;;;;;;;40.63;22.92;;;4.30;99.90;;;;;;5095950;28;20214;-57
2020/12/02 11:48:44;;;;;;;39.47;22.95;;;4.40;99.90;;;;;;5096173;28;20567;-57
2020/12/02 11:51:19;;;;;;;42.33;24.02;;;4.40;99.90;;;;;;5037496;28;20199;-57
2020/12/02 11:53:54;;;;;;;41.78;25.27;;;4.40;99.90;;;;;;5090873;28;20573;-56
2020/12/02 11:56:23;;;;;;;40.70;23.67;;;4.30;99.90;;;;;;5096269;28;20148;-58
2020/12/02 11:58:56;;;;;;;44.53;24.90;;;4.30;99.90;;;;;;5095998;28;20546;-58
2020/12/02 12:01:31;;;;;;;45.50;25.63;;;4.30;99.90;;;;;;5096551;28;20155;-58
2020/12/02 12:04:05;;;;;;;43.83;24.67;;;4.30;99.90;;;;;;5094360;28;20140;-57
2020/12/02 12:06:31;;;;;;;45.88;24.50;;;4.30;99.90;;;;;;5094823;28;20258;-56
2020/12/02 12:09:08;;;;;;;46.83;25.33;;;4.30;99.90;;;;;;5095740;28;20595;-56
2020/12/02 12:11:35;;;;;;;45.38;24.55;;;4.30;99.90;;;;;;5095955;28;20179;-58
2020/12/02 12:14:18;;;;;;;42.58;24.23;;;4.30;99.90;;;;;;5095978;28;20172;-56
2020/12/02 12:17:10;;;;;;;41.17;23.88;;;4.30;99.90;;;;;;5094985;28;20155;-56
2020/12/02 12:19:49;;;;;;;40.05;24.02;;;4.30;99.90;;;;;;5094496;28;20168;-56
2020/12/02 12:22:36;;;;;;;42.33;24.05;;;4.30;99.90;;;;;;5094883;28;20239;-58
2020/12/02 12:25:14;;;;;;;44.47;24.85;;;4.30;99.90;;;;;;5094849;28;20166;-58
2020/12/02 12:27:41;;;;;;;43.45;24.83;;;4.20;99.90;;;;;;5095348;28;20210;-58
2020/12/02 12:30:08;;;;;;;46.78;24.88;;;4.20;99.90;;;;;;5095510;28;20164;-58
2020/12/02 12:32:44;;;;;;;46.45;25.33;;;4.20;99.90;;;;;;5095784;28;20163;-58
2020/12/02 12:35:25;;;;;;;43.72;24.38;;;4.20;99.90;;;;;;5095152;28;20181;-58
2020/12/02 12:38:14;;;;;;;43.55;24.30;;;4.10;99.90;;;;;;5095391;28;20151;-58
2020/12/02 12:40:42;;;;;;;43.17;25.13;;;4.10;99.90;;;;;;5094245;28;20505;-58
2020/12/02 12:43:14;;;;;;;41.47;23.73;;;4.10;99.90;;;;;;5094766;28;20545;-58
2020/12/02 12:45:44;;;;;;;43.72;24.30;;;4.10;99.90;;;;;;5094113;28;20517;-58
2020/12/02 12:48:15;;;;;;;43.83;24.92;;;4.00;99.90;;;;;;5094203;28;20167;-58
2020/12/02 12:50:45;;;;;;;47.90;25.35;;;4.00;99.90;;;;;;5095424;28;20189;-58
2020/12/02 12:53:11;;;;;;;40.97;23.08;;;3.90;99.90;;;;;;5095309;28;20194;-58
2020/12/02 12:55:37;;;;;;;49.13;25.35;;;3.90;99.90;;;;;;5094074;28;20198;-58
2020/12/02 12:58:11;;;;;;;45.15;24.63;;;3.90;99.90;;;;;;5094893;28;20160;-58
2020/12/02 13:00:54;;;;;;;41.70;24.02;;;3.80;99.90;;;;;;5095237;28;20548;-58